Terminal Aerodrome Forecast
Issued by NWS

Home | Current Version | Previous Version | Text Only | Print | Product List | Glossary On
Versions: 1 2 3 4 5 6 7 8 9 10 11 12 13
000
FTUS45 KRIW 160500
TAFCOD
TAF
KCOD 160523Z 1606/1706 VRB05KT P6SM SCT070 BKN100
     FM161800 VRB05KT P6SM VCSH SCT060 BKN100
     FM170400 VRB05KT P6SM SCT090 BKN150
      AMD LTD TO CLD VIS AND WIND=

USA.gov is the U.S. government's official web portal to all federal, state and local government web resources and services.